^^
Grace C. Lehan Memorial Weather Station Historical Data
Daily Summary for September 23, 2022 Units:  Metric    English   Both
Daily Weekly Monthly Yearly
  High: Low: Average:
Temperature: 15.9 °C 9.6 °C 12.4 °C
Dew Point: 10.9 °C 3.5 °C 6.2 °C
Humidity: 83% 49% 67%
Wind Speed: 12.6km/h 0km/h 4.3km/h
Wind Gust: 38.6km/h - -
Wind- - NW
Pressure: 1013.8 hPa 1005.3 hPa -
Precipitation: 0 mm    
 
 
Tabular Data for September 23, 2022
Time Temperature Dew Point Pressure Wind Wind Speed Wind Gust Humidity Rainfall Rate (Hourly) solar
00:04 13.9 °C 10.9 °C 1005.3 hPa Calm     82% 0 mm 0 W/m2
00:09 13.9 °C 10.8 °C 1005.3 hPa WNW 1.4 km/h 8 km/h 82% 0 mm 0 W/m2
00:14 13.8 °C 10.6 °C 1005.6 hPa WNW 1.3 km/h 16.1 km/h 81% 0 mm 0 W/m2
00:19 13.8 °C 10.6 °C 1005.6 hPa NW 1.3 km/h 16.1 km/h 81% 0 mm 0 W/m2
00:24 13.8 °C 10.4 °C 1005.6 hPa WNW 2.4 km/h 19.3 km/h 80.2% 0 mm 0 W/m2
00:29 13.8 °C 10.2 °C 1005.6 hPa NW 1.3 km/h 19.3 km/h 79.1% 0 mm 0 W/m2
00:34 13.7 °C 10.1 °C 1005.6 hPa NW 4.3 km/h 19.3 km/h 78.3% 0 mm 0 W/m2
00:39 13.7 °C 9.9 °C 1006 hPa NNW 1.4 km/h 16.1 km/h 77.9% 0 mm 0 W/m2
00:44 13.7 °C 9.8 °C 1006 hPa NW 2.6 km/h 16.1 km/h 77.2% 0 mm 0 W/m2
00:49 13.7 °C 9.7 °C 1006 hPa West 1.1 km/h 16.1 km/h 76.8% 0 mm 0 W/m2
00:54 13.7 °C 9.7 °C 1006 hPa WNW 3.2 km/h 16.1 km/h 76.7% 0 mm 0 W/m2
00:59 13.6 °C 9.6 °C 1006 hPa NW 1.6 km/h 19.3 km/h 76.4% 0 mm 0 W/m2
01:04 13.6 °C 9.6 °C 1006 hPa NW 3.9 km/h 19.3 km/h 76.6% 0 mm 0 W/m2
01:09 13.5 °C 9.4 °C 1006 hPa NW 1.1 km/h 17.7 km/h 76.5% 0 mm 0 W/m2
01:14 13.4 °C 9.5 °C 1006.3 hPa NW 1.3 km/h 17.7 km/h 77% 0 mm 0 W/m2
01:19 13.3 °C 9.3 °C 1006.3 hPa WNW 1.1 km/h 17.7 km/h 76.5% 0 mm 0 W/m2
01:24 13.2 °C 9.2 °C 1006.3 hPa WNW 0.3 km/h 17.7 km/h 76.5% 0 mm 0 W/m2
01:29 13.1 °C 9.2 °C 1006.3 hPa WNW 3.4 km/h 19.3 km/h 77% 0 mm 0 W/m2
01:34 13 °C 9.2 °C 1006.3 hPa NW 0.2 km/h 19.3 km/h 77.4% 0 mm 0 W/m2
01:39 12.9 °C 9.2 °C 1006.3 hPa NW 1 km/h 11.3 km/h 78.4% 0 mm 0 W/m2
01:44 12.8 °C 9.1 °C 1006.3 hPa WNW 2.1 km/h 11.3 km/h 78.1% 0 mm 0 W/m2
01:49 12.7 °C 9.1 °C 1006.7 hPa NW 0.2 km/h 11.3 km/h 79% 0 mm 0 W/m2
01:54 12.6 °C 9.1 °C 1006.7 hPa WNW 0.3 km/h 11.3 km/h 79.2% 0 mm 0 W/m2
01:59 12.4 °C 9.1 °C 1006.7 hPa WNW 0.2 km/h 11.3 km/h 79.8% 0 mm 0 W/m2
02:04 12.3 °C 9.1 °C 1006.3 hPa WNW 0.5 km/h 11.3 km/h 80.4% 0 mm 0 W/m2
02:09 12.2 °C 9.1 °C 1006.7 hPa WNW 1.8 km/h 16.1 km/h 80.9% 0 mm 0 W/m2
02:14 12.1 °C 8.9 °C 1006.3 hPa WNW 2.1 km/h 16.1 km/h 81% 0 mm 0 W/m2
02:19 12 °C 8.8 °C 1006.3 hPa WNW 0.8 km/h 16.1 km/h 81% 0 mm 0 W/m2
02:24 11.9 °C 8.8 °C 1006.7 hPa WNW 3.9 km/h 17.7 km/h 81% 0 mm 0 W/m2
02:29 11.8 °C 8.8 °C 1006.7 hPa WNW 0.8 km/h 17.7 km/h 81.6% 0 mm 0 W/m2
02:34 11.8 °C 8.8 °C 1006.3 hPa NW 0.3 km/h 17.7 km/h 82% 0 mm 0 W/m2
02:39 11.7 °C 8.7 °C 1006.3 hPa NW 0.8 km/h 11.3 km/h 82% 0 mm 0 W/m2
02:44 11.7 °C 8.7 °C 1006.3 hPa NW 1.4 km/h 11.3 km/h 82% 0 mm 0 W/m2
02:49 11.6 °C 8.6 °C 1006.3 hPa NW 1 km/h 11.3 km/h 82% 0 mm 0 W/m2
02:54 11.5 °C 8.6 °C 1006.7 hPa NW 0.6 km/h 11.3 km/h 82% 0 mm 0 W/m2
02:59 11.4 °C 8.5 °C 1006.3 hPa NW 1.6 km/h 11.3 km/h 82% 0 mm 0 W/m2
03:04 11.4 °C 8.4 °C 1006.3 hPa NW 2.4 km/h 16.1 km/h 82% 0 mm 0 W/m2
03:09 11.3 °C 8.4 °C 1006.3 hPa WNW 4.7 km/h 19.3 km/h 82% 0 mm 0 W/m2
03:14 11.3 °C 8.4 °C 1006.7 hPa WNW 4.2 km/h 19.3 km/h 82% 0 mm 0 W/m2
03:19 11.3 °C 8.3 °C 1006.7 hPa WNW 2.6 km/h 19.3 km/h 82% 0 mm 0 W/m2
03:24 11.3 °C 8.3 °C 1006.7 hPa WNW 1 km/h 19.3 km/h 82% 0 mm 0 W/m2
03:29 11.2 °C 8.2 °C 1006.7 hPa WNW 0.5 km/h 19.3 km/h 82% 0 mm 0 W/m2
03:34 11.1 °C 8.2 °C 1007 hPa WNW 2.4 km/h 19.3 km/h 82.1% 0 mm 0 W/m2
03:39 11.1 °C 8.2 °C 1007 hPa WNW 0.5 km/h 19.3 km/h 82.6% 0 mm 0 W/m2
03:44 11 °C 8.1 °C 1007 hPa WNW 0.6 km/h 19.3 km/h 82.3% 0 mm 0 W/m2
03:49 10.9 °C 8.2 °C 1007 hPa Calm   19.3 km/h 83% 0 mm 0 W/m2
03:54 10.8 °C 8.1 °C 1006.7 hPa WNW 2.9 km/h 19.3 km/h 83% 0 mm 0 W/m2
03:59 10.7 °C 8 °C 1006.7 hPa WNW 1.3 km/h 19.3 km/h 83% 0 mm 0 W/m2
04:00 10.7 °C 7.9 °C 1006.7 hPa Calm   19.3 km/h 83% 0 mm 0 W/m2
04:09 10.6 °C 7.8 °C 1006.7 hPa WNW 4.7 km/h 16.1 km/h 83% 0 mm 0 W/m2
04:14 10.6 °C 7.8 °C 1006.7 hPa WNW 5.1 km/h 19.3 km/h 83% 0 mm 0 W/m2
04:19 10.6 °C 7.6 °C 1006.7 hPa WNW 3.9 km/h 19.3 km/h 82% 0 mm 0 W/m2
04:24 10.6 °C 7.6 °C 1007 hPa WNW 3.2 km/h 22.5 km/h 82% 0 mm 0 W/m2
04:29 10.6 °C 7.6 °C 1007 hPa NW 2.9 km/h 22.5 km/h 82% 0 mm 0 W/m2
04:34 10.5 °C 7.5 °C 1007 hPa WNW 3.5 km/h 22.5 km/h 81.8% 0 mm 0 W/m2
04:39 10.5 °C 7.4 °C 1007 hPa WNW 1.6 km/h 17.7 km/h 81% 0 mm 0 W/m2
04:44 10.4 °C 7.4 °C 1007.3 hPa WNW 1 km/h 17.7 km/h 81.5% 0 mm 0 W/m2
04:49 10.4 °C 7.3 °C 1007.3 hPa WNW 0.8 km/h 17.7 km/h 81% 0 mm 0 W/m2
04:54 10.4 °C 7.3 °C 1007.3 hPa WNW 2.6 km/h 17.7 km/h 81% 0 mm 0 W/m2
04:59 10.3 °C 7.2 °C 1007.7 hPa WNW 2.1 km/h 17.7 km/h 81% 0 mm 0 W/m2
05:04 10.3 °C 7.2 °C 1007.7 hPa WNW 1.6 km/h 11.3 km/h 81% 0 mm 0 W/m2
05:09 10.3 °C 7.1 °C 1007.7 hPa WNW 5.1 km/h 19.3 km/h 80.5% 0 mm 0 W/m2
05:14 10.3 °C 7 °C 1007.7 hPa WNW 3.2 km/h 19.3 km/h 80% 0 mm 0 W/m2
05:19 10.3 °C 6.9 °C 1007.7 hPa WNW 5.5 km/h 22.5 km/h 79.8% 0 mm 0 W/m2
05:24 10.3 °C 6.8 °C 1007.7 hPa WNW 2.7 km/h 22.5 km/h 79% 0 mm 0 W/m2
05:29 10.2 °C 6.8 °C 1007.7 hPa NW 3.9 km/h 22.5 km/h 79% 0 mm 0 W/m2
05:34 10.2 °C 6.7 °C 1008 hPa NW 2.6 km/h 22.5 km/h 79% 0 mm 0 W/m2
05:39 10.2 °C 6.7 °C 1008 hPa NNW 0.2 km/h 17.7 km/h 79% 0 mm 0 W/m2
05:44 10.1 °C 6.7 °C 1008 hPa NW 1 km/h 17.7 km/h 79% 0 mm 0 W/m2
05:49 10.1 °C 6.6 °C 1008 hPa NNW 0.8 km/h 17.7 km/h 79% 0 mm 0 W/m2
05:54 10 °C 6.6 °C 1008 hPa NNW 1.8 km/h 17.7 km/h 79% 0 mm 0 W/m2
05:59 9.9 °C 6.5 °C 1008 hPa WNW 1.8 km/h 17.7 km/h 79% 0 mm 0 W/m2
06:04 9.9 °C 6.4 °C 1008 hPa WNW 3.2 km/h 17.7 km/h 79% 0 mm 0 W/m2
06:09 9.8 °C 6.4 °C 1008.4 hPa NW 2.9 km/h 16.1 km/h 79% 0 mm 0 W/m2
06:14 9.8 °C 6.4 °C 1008.4 hPa NW 5.1 km/h 22.5 km/h 79% 0 mm 0 W/m2
06:19 9.8 °C 6.2 °C 1008.4 hPa NNW 1.1 km/h 22.5 km/h 78.1% 0 mm 0 W/m2
06:24 9.8 °C 6.3 °C 1008.4 hPa WNW 5 km/h 22.5 km/h 78.5% 0 mm 0 W/m2
06:29 9.8 °C 6.2 °C 1008.4 hPa NW 5.6 km/h 24.1 km/h 78% 0 mm 0 W/m2
06:34 9.8 °C 6.2 °C 1008.4 hPa NW 5.5 km/h 24.1 km/h 78% 0 mm 0 W/m2
06:39 9.8 °C 6.1 °C 1008.7 hPa NW 5.3 km/h 25.7 km/h 77.4% 0 mm 0 W/m2
06:44 9.8 °C 6 °C 1009 hPa NNW 1.3 km/h 25.7 km/h 77% 0 mm 5 W/m2
06:49 9.8 °C 6 °C 1009 hPa NW 1.8 km/h 25.7 km/h 77.3% 0 mm 7 W/m2
06:54 9.8 °C 5.9 °C 1009 hPa NW 3.5 km/h 25.7 km/h 77% 0 mm 11 W/m2
06:59 9.8 °C 5.9 °C 1009.4 hPa NW 7.7 km/h 25.7 km/h 77% 0 mm 21 W/m2
07:04 9.8 °C 5.9 °C 1009.4 hPa NW 4 km/h 25.7 km/h 77% 0 mm 23 W/m2
07:09 9.9 °C 6 °C 1009.4 hPa NW 4 km/h 22.5 km/h 77% 0 mm 25 W/m2
07:14 9.9 °C 6.1 °C 1009.4 hPa NW 4.2 km/h 22.5 km/h 76.9% 0 mm 37 W/m2
07:19 10 °C 6 °C 1009.4 hPa NNW 3.7 km/h 22.5 km/h 76.2% 0 mm 51 W/m2
07:24 10.1 °C 6.1 °C 1009.7 hPa NW 3.2 km/h 22.5 km/h 76.3% 0 mm 51 W/m2
07:29 10.1 °C 5.9 °C 1009.7 hPa NNW 3.9 km/h 22.5 km/h 75.3% 0 mm 42 W/m2
07:34 10.2 °C 5.9 °C 1009.7 hPa WNW 4.5 km/h 22.5 km/h 75% 0 mm 53 W/m2
07:39 10.2 °C 6 °C 1009.7 hPa WNW 5 km/h 30.6 km/h 75% 0 mm 51 W/m2
07:44 10.2 °C 6 °C 1009.7 hPa WNW 3.1 km/h 30.6 km/h 75% 0 mm 56 W/m2
07:49 10.3 °C 6.1 °C 1009.7 hPa WNW 5.5 km/h 30.6 km/h 75% 0 mm 62 W/m2
07:54 10.3 °C 6.1 °C 1009.7 hPa NW 1.3 km/h 30.6 km/h 75% 0 mm 74 W/m2
07:59 10.3 °C 6.1 °C 1009.7 hPa NW 3.5 km/h 30.6 km/h 75% 0 mm 84 W/m2
08:00 10.3 °C 6.1 °C 1009.7 hPa Calm   30.6 km/h 75% 0 mm 63 W/m2
08:09 10.4 °C 6.2 °C 1009.7 hPa WNW 1.4 km/h 9.7 km/h 75% 0 mm 60 W/m2
08:14 10.4 °C 6.2 °C 1009.7 hPa NW 4.3 km/h 20.9 km/h 74.9% 0 mm 74 W/m2
08:19 10.5 °C 6.1 °C 1009.7 hPa WNW 2.9 km/h 20.9 km/h 74% 0 mm 77 W/m2
08:24 10.5 °C 6.1 °C 1009.7 hPa NW 4.7 km/h 20.9 km/h 74.2% 0 mm 130 W/m2
08:29 10.6 °C 6.2 °C 1009.7 hPa NW 2.6 km/h 20.9 km/h 74% 0 mm 128 W/m2
08:34 10.7 °C 6.4 °C 1009.7 hPa NW 4.2 km/h 20.9 km/h 74.8% 0 mm 123 W/m2
08:39 10.8 °C 6.3 °C 1009.7 hPa NW 1.9 km/h 17.7 km/h 73.5% 0 mm 207 W/m2
08:44 11 °C 6.4 °C 1010 hPa NW 6.1 km/h 20.9 km/h 73.2% 0 mm 214 W/m2
08:49 11.2 °C 6.4 °C 1010 hPa NW 2.7 km/h 20.9 km/h 72.4% 0 mm 160 W/m2
08:54 11.3 °C 6.4 °C 1009.7 hPa NW 5.1 km/h 30.6 km/h 71.9% 0 mm 251 W/m2
08:59 11.3 °C 6.4 °C 1010 hPa NW 7.7 km/h 30.6 km/h 71.8% 0 mm 262 W/m2
09:04 11.4 °C 6.4 °C 1010 hPa NW 8 km/h 30.6 km/h 71.1% 0 mm 262 W/m2
09:09 11.8 °C 6.6 °C 1010 hPa NW 5 km/h 27.4 km/h 70.4% 0 mm 592 W/m2
09:14 12.3 °C 7 °C 1010 hPa WNW 3.4 km/h 27.4 km/h 70.3% 0 mm 531 W/m2
09:19 12.8 °C 7.2 °C 1010 hPa NW 4.8 km/h 27.4 km/h 68.7% 0 mm 628 W/m2
09:24 13.2 °C 7.4 °C 1010 hPa NNW 3.2 km/h 27.4 km/h 67.7% 0 mm 682 W/m2
09:29 13.6 °C 7.6 °C 1010 hPa WNW 5.6 km/h 27.4 km/h 66.9% 0 mm 635 W/m2
09:34 13.9 °C 7.6 °C 1010 hPa NW 3.9 km/h 27.4 km/h 65.7% 0 mm 689 W/m2
09:39 14.3 °C 7.9 °C 1010 hPa NW 5.5 km/h 27.4 km/h 65.4% 0 mm 608 W/m2
09:44 14.5 °C 8 °C 1010 hPa WNW 3.7 km/h 27.4 km/h 65% 0 mm 613 W/m2
09:49 14.7 °C 8 °C 1010 hPa NNW 2.6 km/h 27.4 km/h 64.2% 0 mm 666 W/m2
09:54 14.9 °C 8.1 °C 1010 hPa WNW 3.9 km/h 27.4 km/h 63.4% 0 mm 657 W/m2
09:59 15.3 °C 8.3 °C 1009.7 hPa NW 1.4 km/h 27.4 km/h 63.3% 0 mm 663 W/m2
10:04 15.5 °C 8.2 °C 1010 hPa WNW 6.9 km/h 27.4 km/h 61.8% 0 mm 698 W/m2
10:09 15.4 °C 7.9 °C 1010 hPa NW 3.5 km/h 22.5 km/h 60.8% 0 mm 710 W/m2
10:14 15.4 °C 8.2 °C 1010 hPa NW 3.2 km/h 25.7 km/h 62.5% 0 mm 707 W/m2
10:19 15.4 °C 7.9 °C 1010 hPa NW 7.2 km/h 25.7 km/h 61.1% 0 mm 707 W/m2
10:24 15.3 °C 8 °C 1009.7 hPa WNW 5.1 km/h 25.7 km/h 61.6% 0 mm 675 W/m2
10:29 15.3 °C 8.1 °C 1010 hPa WNW 6 km/h 25.7 km/h 61.7% 0 mm 691 W/m2
10:34 15.5 °C 8.1 °C 1010 hPa NW 2.7 km/h 25.7 km/h 61.2% 0 mm 694 W/m2
10:39 15.7 °C 8.1 °C 1010 hPa NW 6.9 km/h 24.1 km/h 60.6% 0 mm 795 W/m2
10:44 15.8 °C 8.3 °C 1010 hPa NW 2.4 km/h 24.1 km/h 61.2% 0 mm 796 W/m2
10:49 15.9 °C 7.9 °C 1010 hPa NW 6 km/h 24.1 km/h 58.7% 0 mm 756 W/m2
10:54 15.9 °C 7.4 °C 1010 hPa NW 7.4 km/h 27.4 km/h 57.3% 0 mm 766 W/m2
10:59 15.8 °C 7.5 °C 1009.7 hPa NW 10.1 km/h 30.6 km/h 57.8% 0 mm 735 W/m2
11:04 15.7 °C 7.3 °C 1009.7 hPa NW 6.9 km/h 30.6 km/h 57.3% 0 mm 742 W/m2
11:09 15.6 °C 7.3 °C 1009.7 hPa NW 9.7 km/h 32.2 km/h 57.7% 0 mm 766 W/m2
11:14 15.5 °C 7.3 °C 1009.7 hPa NW 7.6 km/h 32.2 km/h 58% 0 mm 770 W/m2
11:19 15.6 °C 7.3 °C 1010 hPa NW 10 km/h 32.2 km/h 57.7% 0 mm 763 W/m2
11:24 15.6 °C 7.2 °C 1010 hPa NW 9.3 km/h 32.2 km/h 57.2% 0 mm 770 W/m2
11:29 15.6 °C 7.3 °C 1010 hPa NW 7.1 km/h 32.2 km/h 57.8% 0 mm 770 W/m2
11:34 15.6 °C 7.2 °C 1010 hPa WNW 8.2 km/h 32.2 km/h 57.3% 0 mm 650 W/m2
11:39 15.4 °C 7.4 °C 1010 hPa WNW 10.3 km/h 29 km/h 59% 0 mm 304 W/m2
11:44 15.1 °C 6.9 °C 1010 hPa WNW 9.3 km/h 29 km/h 57.8% 0 mm 179 W/m2
11:49 14.9 °C 6.8 °C 1010 hPa WNW 11.6 km/h 29 km/h 58.5% 0 mm 146 W/m2
11:54 14.8 °C 6.9 °C 1010 hPa NW 4.2 km/h 29 km/h 59.5% 0 mm 135 W/m2
11:59 14.8 °C 6.9 °C 1010 hPa NW 10 km/h 29 km/h 59.1% 0 mm 104 W/m2
12:00 14.8 °C 6.2 °C 1010 hPa Calm   29 km/h 56% 0 mm 51 W/m2
12:09 14.6 °C 6.1 °C 1010 hPa NW 8.5 km/h 27.4 km/h 56.4% 0 mm 86 W/m2
12:14 14.5 °C 5.9 °C 1010 hPa NW 10 km/h 32.2 km/h 56.1% 0 mm 181 W/m2
12:19 14.5 °C 5.7 °C 1010 hPa NW 8 km/h 32.2 km/h 55.7% 0 mm 148 W/m2
12:24 14.5 °C 5.9 °C 1009.7 hPa NW 10.9 km/h 32.2 km/h 56.1% 0 mm 410 W/m2
12:29 14.7 °C 6.6 °C 1009.7 hPa NW 3.4 km/h 32.2 km/h 58.3% 0 mm 287 W/m2
12:34 14.9 °C 6.1 °C 1009.7 hPa NNW 9.7 km/h 32.2 km/h 55.7% 0 mm 287 W/m2
12:39 15.1 °C 6.1 °C 1009.7 hPa WNW 7.9 km/h 32.2 km/h 54.8% 0 mm 91 W/m2
12:44 15.1 °C 5.7 °C 1009.7 hPa NW 12.6 km/h 32.2 km/h 53.3% 0 mm 53 W/m2
12:49 14.9 °C 5.8 °C 1009.7 hPa NW 4.5 km/h 32.2 km/h 54.3% 0 mm 56 W/m2
12:54 14.9 °C 5.6 °C 1009.7 hPa NW 11.3 km/h 32.2 km/h 53.4% 0 mm 146 W/m2
12:59 14.9 °C 5.6 °C 1009.7 hPa NW 4.8 km/h 32.2 km/h 53.2% 0 mm 243 W/m2
13:04 15.1 °C 5.8 °C 1009.7 hPa NW 6.9 km/h 32.2 km/h 53.9% 0 mm 663 W/m2
13:09 15.2 °C 5.9 °C 1009.7 hPa NW 6.4 km/h 24.1 km/h 53.8% 0 mm 79 W/m2
13:14 15.2 °C 5.9 °C 1009.4 hPa NW 6.1 km/h 24.1 km/h 53.9% 0 mm 135 W/m2
13:19 15.3 °C 6.1 °C 1009.4 hPa NW 2.9 km/h 24.1 km/h 54.2% 0 mm 67 W/m2
13:24 15.4 °C 5.9 °C 1009.4 hPa NW 7.4 km/h 29 km/h 52.9% 0 mm 111 W/m2
13:29 15.4 °C 5.4 °C 1009.4 hPa NW 11.6 km/h 29 km/h 51.1% 0 mm 65 W/m2
13:34 15.5 °C 5.5 °C 1009.4 hPa WNW 8 km/h 29 km/h 51.1% 0 mm 42 W/m2
13:39 15.6 °C 6.1 °C 1009.4 hPa NW 4.8 km/h 25.7 km/h 53.1% 0 mm 65 W/m2
13:44 15.7 °C 5.6 °C 1009.4 hPa WNW 6.9 km/h 25.7 km/h 51% 0 mm 60 W/m2
13:49 15.8 °C 5.4 °C 1009.4 hPa NW 9.8 km/h 27.4 km/h 50.2% 0 mm 42 W/m2
14:00 15.9 °C 5.2 °C 1009.4 hPa NW 6.4 km/h 30.6 km/h 49% 0 mm 47 W/m2
14:30 15.8 °C 5.2 °C 1009.4 hPa WNW 8 km/h 35.4 km/h 49% 0 mm 43 W/m2
15:00 15.7 °C 5.9 °C 1009.4 hPa WNW 9.7 km/h 38.6 km/h 52% 0 mm 67 W/m2
15:30 15.6 °C 5.2 °C 1009.4 hPa NW 11.3 km/h 35.4 km/h 50% 0 mm 141 W/m2
16:04 15.6 °C 4.9 °C 1009.4 hPa WNW 7.2 km/h 20.9 km/h 49% 0 mm 77 W/m2
16:09 15.7 °C 5.2 °C 1009.7 hPa WNW 5 km/h 22.5 km/h 49.9% 0 mm 77 W/m2
16:14 15.7 °C 5.2 °C 1009.7 hPa NW 11.1 km/h 29 km/h 49.7% 0 mm 113 W/m2
16:19 15.6 °C 5.3 °C 1009.7 hPa NW 7.1 km/h 29 km/h 50.1% 0 mm 104 W/m2
16:24 15.6 °C 5.6 °C 1009.7 hPa WNW 5.1 km/h 30.6 km/h 51.3% 0 mm 42 W/m2
16:29 15.6 °C 5.7 °C 1009.7 hPa WNW 8.4 km/h 30.6 km/h 51.6% 0 mm 47 W/m2
16:34 15.6 °C 5.7 °C 1009.7 hPa WNW 5.1 km/h 30.6 km/h 51.9% 0 mm 42 W/m2
16:39 15.5 °C 5.6 °C 1009.7 hPa NW 10.3 km/h 25.7 km/h 51.7% 0 mm 46 W/m2
16:44 15.4 °C 5.2 °C 1009.7 hPa NW 9.3 km/h 25.7 km/h 50.3% 0 mm 40 W/m2
16:49 15.3 °C 5.1 °C 1009.7 hPa NW 10.6 km/h 30.6 km/h 50.5% 0 mm 40 W/m2
16:54 15.2 °C 4.8 °C 1009.7 hPa NW 8.9 km/h 30.6 km/h 49.9% 0 mm 44 W/m2
16:59 15.1 °C 5.2 °C 1009.7 hPa NW 6.4 km/h 30.6 km/h 51.4% 0 mm 30 W/m2
17:04 15.2 °C 5.5 °C 1009.7 hPa WNW 4.7 km/h 30.6 km/h 52.5% 0 mm 30 W/m2
17:09 15.1 °C 5.6 °C 1009.7 hPa WNW 3.7 km/h 20.9 km/h 53.1% 0 mm 30 W/m2
17:14 15.1 °C 5.6 °C 1009.7 hPa NW 7.2 km/h 27.4 km/h 52.8% 0 mm 30 W/m2
17:19 15.1 °C 5.3 °C 1009.7 hPa NW 7.2 km/h 27.4 km/h 52% 0 mm 26 W/m2
17:24 14.9 °C 5.2 °C 1009.7 hPa NW 6.9 km/h 27.4 km/h 52.3% 0 mm 26 W/m2
17:29 14.8 °C 5.2 °C 1009.7 hPa WNW 7.2 km/h 27.4 km/h 52.6% 0 mm 25 W/m2
17:34 14.7 °C 5 °C 1009.7 hPa NW 7.4 km/h 27.4 km/h 52.1% 0 mm 25 W/m2
17:39 14.6 °C 5 °C 1010 hPa NW 6.9 km/h 29 km/h 52.5% 0 mm 25 W/m2
17:44 14.4 °C 5 °C 1010 hPa NW 7.6 km/h 29 km/h 53% 0 mm 23 W/m2
17:49 14.3 °C 5.2 °C 1010 hPa WNW 4.5 km/h 29 km/h 54.2% 0 mm 21 W/m2
17:54 14.2 °C 5.3 °C 1010 hPa WNW 5.5 km/h 29 km/h 54.8% 0 mm 21 W/m2
17:59 14.1 °C 5.2 °C 1010 hPa WNW 5.6 km/h 29 km/h 55.1% 0 mm 19 W/m2
18:04 14 °C 5.1 °C 1010 hPa NW 8 km/h 29 km/h 55% 0 mm 18 W/m2
18:09 13.8 °C 5 °C 1010.4 hPa NW 6.4 km/h 22.5 km/h 55.1% 0 mm 16 W/m2
18:14 13.7 °C 5.1 °C 1010.4 hPa WNW 7.4 km/h 25.7 km/h 55.8% 0 mm 14 W/m2
18:19 13.6 °C 4.9 °C 1010.4 hPa WNW 5.8 km/h 25.7 km/h 55.9% 0 mm 12 W/m2
18:24 13.4 °C 4.8 °C 1010.4 hPa WNW 11.4 km/h 27.4 km/h 56% 0 mm 11 W/m2
18:29 13.3 °C 4.7 °C 1010.4 hPa WNW 8 km/h 27.4 km/h 56% 0 mm 9 W/m2
18:34 13.1 °C 4.7 °C 1010.4 hPa NW 5.3 km/h 27.4 km/h 56.3% 0 mm 7 W/m2
18:39 13 °C 4.6 °C 1010.4 hPa NW 7.9 km/h 27.4 km/h 56.5% 0 mm 5 W/m2
18:44 12.8 °C 4.3 °C 1010.4 hPa NW 7.9 km/h 27.4 km/h 56.2% 0 mm 0 W/m2
18:49 12.7 °C 4.3 °C 1010.4 hPa WNW 7.2 km/h 27.4 km/h 56.6% 0 mm 0 W/m2
18:54 12.6 °C 4.3 °C 1010.7 hPa WNW 4.3 km/h 27.4 km/h 57% 0 mm 0 W/m2
18:59 12.5 °C 4.3 °C 1010.7 hPa NW 5.3 km/h 27.4 km/h 57.3% 0 mm 0 W/m2
19:04 12.3 °C 4.1 °C 1010.7 hPa NW 10.1 km/h 29 km/h 57.1% 0 mm 0 W/m2
19:09 12.3 °C 4.1 °C 1010.7 hPa WNW 6.8 km/h 29 km/h 57.1% 0 mm 0 W/m2
19:14 12.2 °C 4.2 °C 1011.1 hPa NW 3.2 km/h 29 km/h 58% 0 mm 0 W/m2
19:19 12.1 °C 4.1 °C 1011.1 hPa WNW 4.8 km/h 29 km/h 58% 0 mm 0 W/m2
19:24 12 °C 4.1 °C 1011.1 hPa NW 6.3 km/h 29 km/h 58.2% 0 mm 0 W/m2
19:29 11.9 °C 3.9 °C 1011.1 hPa NW 7.4 km/h 29 km/h 58% 0 mm 0 W/m2
19:34 11.8 °C 3.9 °C 1011.1 hPa NW 1.6 km/h 29 km/h 58.3% 0 mm 0 W/m2
19:39 11.8 °C 3.9 °C 1011.4 hPa NNW 3.7 km/h 17.7 km/h 58.3% 0 mm 0 W/m2
19:44 11.7 °C 3.9 °C 1011.4 hPa North 1.1 km/h 17.7 km/h 58.7% 0 mm 0 W/m2
19:49 11.6 °C 3.9 °C 1011.4 hPa NW 3.2 km/h 17.7 km/h 59.3% 0 mm 0 W/m2
19:54 11.5 °C 3.8 °C 1011.4 hPa NW 5.5 km/h 20.9 km/h 59.1% 0 mm 0 W/m2
19:59 11.4 °C 3.8 °C 1011.4 hPa NNW 0.6 km/h 20.9 km/h 59.4% 0 mm 0 W/m2
20:04 11.4 °C 3.9 °C 1011.7 hPa NW 0.8 km/h 1.6 km/h 60% 0 mm 0 W/m2
20:09 11.3 °C 3.8 °C 1011.7 hPa NW 1.4 km/h 11.3 km/h 59.8% 0 mm 0 W/m2
20:14 11.3 °C 3.8 °C 1011.7 hPa NNW 1.6 km/h 14.5 km/h 60% 0 mm 0 W/m2
20:19 11.3 °C 3.8 °C 1011.7 hPa NW 4.3 km/h 19.3 km/h 60% 0 mm 0 W/m2
20:24 11.2 °C 3.7 °C 1011.7 hPa NNW 2.3 km/h 19.3 km/h 60% 0 mm 0 W/m2
20:29 11.2 °C 3.7 °C 1011.7 hPa NW 3.1 km/h 29 km/h 60% 0 mm 0 W/m2
20:34 11.1 °C 3.7 °C 1011.4 hPa NW 1.8 km/h 29 km/h 60% 0 mm 0 W/m2
20:39 11.1 °C 3.7 °C 1011.7 hPa WNW 4.3 km/h 22.5 km/h 60.5% 0 mm 0 W/m2
20:44 11 °C 3.8 °C 1011.7 hPa WNW 1.3 km/h 22.5 km/h 60.8% 0 mm 0 W/m2
20:49 10.9 °C 3.7 °C 1011.7 hPa WNW 3.1 km/h 22.5 km/h 61% 0 mm 0 W/m2
20:54 10.9 °C 3.7 °C 1011.7 hPa NW 1.9 km/h 22.5 km/h 61% 0 mm 0 W/m2
20:59 10.9 °C 3.7 °C 1012.1 hPa NW 4.8 km/h 22.5 km/h 60.8% 0 mm 0 W/m2
21:04 10.9 °C 3.7 °C 1012.1 hPa WNW 2.4 km/h 22.5 km/h 60.8% 0 mm 0 W/m2
21:09 10.9 °C 3.7 °C 1012.1 hPa NW 3.2 km/h 16.1 km/h 61% 0 mm 0 W/m2
21:14 10.9 °C 3.6 °C 1012.1 hPa NNW 0.6 km/h 16.1 km/h 60.8% 0 mm 0 W/m2
21:19 10.9 °C 3.7 °C 1012.1 hPa NNW 0.2 km/h 16.1 km/h 61% 0 mm 0 W/m2
21:24 10.8 °C 3.7 °C 1012.4 hPa NW 3.7 km/h 22.5 km/h 61.2% 0 mm 0 W/m2
21:29 10.8 °C 3.7 °C 1012.4 hPa NW 4.8 km/h 27.4 km/h 61.2% 0 mm 0 W/m2
21:34 10.8 °C 3.6 °C 1012.4 hPa WNW 5.3 km/h 27.4 km/h 61% 0 mm 0 W/m2
21:39 10.8 °C 3.6 °C 1012.4 hPa NW 4.3 km/h 20.9 km/h 61% 0 mm 0 W/m2
21:44 10.8 °C 3.5 °C 1012.4 hPa NW 6 km/h 20.9 km/h 60.6% 0 mm 0 W/m2
21:49 10.8 °C 3.6 °C 1012.4 hPa WNW 2.9 km/h 20.9 km/h 60.8% 0 mm 0 W/m2
21:54 10.8 °C 3.6 °C 1012.4 hPa NW 0.3 km/h 20.9 km/h 61% 0 mm 0 W/m2
21:59 10.7 °C 3.7 °C 1012.4 hPa NW 1.9 km/h 20.9 km/h 61.8% 0 mm 0 W/m2
22:04 10.7 °C 3.6 °C 1012.4 hPa NNW 1.1 km/h 20.9 km/h 61.5% 0 mm 0 W/m2
22:09 10.6 °C 3.6 °C 1012.4 hPa NW 3.9 km/h 27.4 km/h 62% 0 mm 0 W/m2
22:14 10.6 °C 3.6 °C 1012.4 hPa NW 2.7 km/h 27.4 km/h 62% 0 mm 0 W/m2
22:19 10.5 °C 3.6 °C 1012.8 hPa WNW 5.5 km/h 27.4 km/h 62% 0 mm 0 W/m2
22:24 10.5 °C 3.6 °C 1012.8 hPa WNW 1.4 km/h 27.4 km/h 62% 0 mm 0 W/m2
22:29 10.4 °C 3.5 °C 1012.8 hPa NW 5.6 km/h 29 km/h 62.1% 0 mm 0 W/m2
22:34 10.4 °C 3.5 °C 1013.1 hPa NW 5 km/h 29 km/h 62% 0 mm 0 W/m2
22:39 10.4 °C 3.6 °C 1013.1 hPa WNW 3.9 km/h 17.7 km/h 62.8% 0 mm 0 W/m2
22:44 10.3 °C 3.7 °C 1013.1 hPa WNW 1.3 km/h 17.7 km/h 63.2% 0 mm 0 W/m2
22:49 10.3 °C 3.7 °C 1013.1 hPa WNW 4.5 km/h 17.7 km/h 63.4% 0 mm 0 W/m2
22:54 10.2 °C 3.7 °C 1013.1 hPa WNW 3.5 km/h 19.3 km/h 64% 0 mm 0 W/m2
22:59 10.2 °C 3.6 °C 1013.1 hPa NW 0.8 km/h 19.3 km/h 63.8% 0 mm 0 W/m2
23:04 10.2 °C 3.7 °C 1013.4 hPa WNW 1.8 km/h 19.3 km/h 64% 0 mm 0 W/m2
23:09 10.1 °C 3.6 °C 1013.4 hPa WNW 1.8 km/h 19.3 km/h 64.1% 0 mm 0 W/m2
23:14 10.1 °C 3.6 °C 1013.4 hPa NW 3.4 km/h 19.3 km/h 64.4% 0 mm 0 W/m2
23:19 10 °C 3.6 °C 1013.8 hPa WNW 3.1 km/h 19.3 km/h 64.6% 0 mm 0 W/m2
23:24 9.9 °C 3.7 °C 1013.8 hPa WNW 2.7 km/h 20.9 km/h 64.8% 0 mm 0 W/m2
23:29 9.9 °C 3.7 °C 1013.8 hPa WNW 3.7 km/h 27.4 km/h 65% 0 mm 0 W/m2
23:34 9.9 °C 3.7 °C 1013.8 hPa West 1.8 km/h 27.4 km/h 65% 0 mm 0 W/m2
23:39 9.9 °C 3.8 °C 1013.8 hPa WNW 1.6 km/h 16.1 km/h 65.8% 0 mm 0 W/m2
23:44 9.8 °C 3.8 °C 1013.8 hPa WNW 1 km/h 16.1 km/h 66.1% 0 mm 0 W/m2
23:49 9.7 °C 3.9 °C 1013.8 hPa NW 0.5 km/h 16.1 km/h 67% 0 mm 0 W/m2
23:54 9.6 °C 3.8 °C 1013.8 hPa WNW 2.3 km/h 17.7 km/h 67% 0 mm 0 W/m2
23:59 9.6 °C 3.7 °C 1013.4 hPa WNW 3.1 km/h 17.7 km/h 67% 0 mm 0 W/m2
Hartford County Weather
Compliments of Weather Underground - 4 mb